SWR054 LSZH-KBOS
Flight info
| Callsign | SWR054 |
|---|---|
| Flight time | N/A |
| Altitude | 34000 |
| Route | VEBIT T10 TORPA DCT REKLA DCT RLP DCT ROTSI DCT KOTUN DCT AMAXA DCT VESAN DCT RATUK DCT SOVAT/N0477F380 L613 SANDY L722 ICTAM T421 DIDZA DCT CESQA DCT BIBPE DCT OKTAD DCT MEDOG DCT PEMOB DCT BAKUR DCT NEBIN/M084F400 DCT 54N020W 5430N03000W 5430N04000W 5230N05000W DCT SAXAN/N0487F400 N550A TOPPS DCT AJJAY OOSHN5 |
| Aircraft | A359/H-SDE2E3GHIJ3J4J5LM1ORWXY/LB1D1 |
Departure
| Time | 2026-04-25 21:03 |
|---|---|
| Airport | Zürich Airport (LSZH) |
Arrival
| Time | N/A |
|---|---|
| Airport | Boston Logan International Airport (KBOS) |
| Time | Latitude | Longitude | Altitude | Speed | Heading |
|---|---|---|---|---|---|
| 2026-04-25 20:32 | 47.46058 | 8.55433 | 1407 ft | 0 kts | 6° |
| 2026-04-25 20:35 | 47.46035 | 8.55736 | 1415 ft | 0 kts | 6° |
| 2026-04-25 20:54 | 47.46029 | 8.55735 | 1409 ft | 4 kts | 6° |
| 2026-04-25 20:54 | 47.46002 | 8.55731 | 1411 ft | 4 kts | 6° |
| 2026-04-25 20:54 | 47.45978 | 8.55727 | 1415 ft | 3 kts | 6° |
| 2026-04-25 20:55 | 47.45954 | 8.55719 | 1409 ft | 4 kts | 37° |
| 2026-04-25 20:55 | 47.45942 | 8.55691 | 1415 ft | 4 kts | 97° |
| 2026-04-25 20:55 | 47.45950 | 8.55653 | 1413 ft | 4 kts | 112° |
| 2026-04-25 20:55 | 47.45957 | 8.55622 | 1410 ft | 1 kts | 96° |
| 2026-04-25 20:59 | 47.45957 | 8.55623 | 1410 ft | 0 kts | 96° |
| 2026-04-25 20:59 | 47.45956 | 8.55633 | 1413 ft | 4 kts | 95° |
| 2026-04-25 20:59 | 47.45950 | 8.55718 | 1409 ft | 11 kts | 96° |
| 2026-04-25 20:59 | 47.45943 | 8.55826 | 1411 ft | 10 kts | 96° |
| 2026-04-25 21:00 | 47.45936 | 8.55932 | 1418 ft | 10 kts | 96° |
| 2026-04-25 21:00 | 47.45933 | 8.55967 | 1419 ft | 10 kts | 96° |
| 2026-04-25 21:00 | 47.45914 | 8.56265 | 1418 ft | 9 kts | 81° |
| 2026-04-25 21:01 | 47.45961 | 8.56318 | 1424 ft | 9 kts | 12° |
| 2026-04-25 21:01 | 47.46035 | 8.56328 | 1422 ft | 12 kts | 5° |
| 2026-04-25 21:01 | 47.46106 | 8.56386 | 1425 ft | 12 kts | 39° |
| 2026-04-25 21:01 | 47.46183 | 8.56379 | 1423 ft | 13 kts | 326° |
| 2026-04-25 21:02 | 47.46257 | 8.56272 | 1420 ft | 23 kts | 317° |
| 2026-04-25 21:02 | 47.46523 | 8.55909 | 1410 ft | 86 kts | 317° |
| 2026-04-25 21:02 | 47.47123 | 8.55091 | 1403 ft | 146 kts | 317° |
| 2026-04-25 21:02 | 47.47957 | 8.53981 | 1790 ft | 162 kts | 319° |
| 2026-04-25 21:03 | 47.48835 | 8.52987 | 2537 ft | 158 kts | 331° |
| 2026-04-25 21:03 | 47.49838 | 8.52117 | 2951 ft | 177 kts | 331° |
| 2026-04-25 21:03 | 47.50883 | 8.51011 | 3279 ft | 196 kts | 316° |
| 2026-04-25 21:03 | 47.51538 | 8.49132 | 3598 ft | 218 kts | 285° |
| 2026-04-25 21:04 | 47.51741 | 8.46848 | 4129 ft | 227 kts | 274° |
| 2026-04-25 21:04 | 47.51777 | 8.44504 | 4839 ft | 228 kts | 271° |
| 2026-04-25 21:04 | 47.51800 | 8.42153 | 5528 ft | 228 kts | 271° |
| 2026-04-25 21:04 | 47.51406 | 8.39930 | 6266 ft | 225 kts | 237° |
| 2026-04-25 21:05 | 47.50254 | 8.38323 | 6744 ft | 239 kts | 208° |
| 2026-04-25 21:05 | 47.48623 | 8.37538 | 7058 ft | 260 kts | 193° |
| 2026-04-25 21:05 | 47.46790 | 8.36999 | 7511 ft | 274 kts | 192° |
| 2026-04-25 21:05 | 47.44898 | 8.36450 | 8197 ft | 279 kts | 193° |
| 2026-04-25 21:06 | 47.42981 | 8.35861 | 8978 ft | 283 kts | 194° |
| 2026-04-25 21:06 | 47.41122 | 8.34882 | 9718 ft | 285 kts | 210° |
| 2026-04-25 21:06 | 47.39570 | 8.33087 | 10417 ft | 288 kts | 231° |
| 2026-04-25 21:06 | 47.39157 | 8.32282 | 10545 ft | 293 kts | 239° |
| 2026-04-25 21:07 | 47.38069 | 8.28483 | 10940 ft | 316 kts | 256° |
| 2026-04-25 21:07 | 47.37598 | 8.25214 | 11258 ft | 334 kts | 262° |
| 2026-04-25 21:07 | 47.37264 | 8.21759 | 11719 ft | 345 kts | 264° |
| 2026-04-25 21:07 | 47.36859 | 8.17066 | 12623 ft | 351 kts | 264° |
| 2026-04-25 21:08 | 47.36636 | 8.14647 | 13096 ft | 354 kts | 263° |
| 2026-04-25 21:08 | 47.36272 | 8.11037 | 13814 ft | 358 kts | 263° |
| 2026-04-25 21:08 | 47.35872 | 8.07389 | 14446 ft | 362 kts | 262° |
| 2026-04-25 21:08 | 47.35444 | 8.03712 | 15092 ft | 365 kts | 262° |
| 2026-04-25 21:09 | 47.34550 | 7.96325 | 16329 ft | 372 kts | 263° |
| 2026-04-25 21:09 | 47.34090 | 7.92556 | 16951 ft | 375 kts | 263° |
| 2026-04-25 21:09 | 47.33625 | 7.88752 | 17581 ft | 378 kts | 263° |
| 2026-04-25 21:10 | 47.33155 | 7.84915 | 18221 ft | 382 kts | 263° |
| 2026-04-25 21:10 | 47.32681 | 7.81044 | 18764 ft | 385 kts | 263° |
| 2026-04-25 21:10 | 47.32202 | 7.77141 | 19322 ft | 388 kts | 263° |
| 2026-04-25 21:10 | 47.31720 | 7.73215 | 19919 ft | 391 kts | 263° |
| 2026-04-25 21:11 | 47.31232 | 7.69254 | 20502 ft | 394 kts | 263° |
| 2026-04-25 21:11 | 47.30927 | 7.65242 | 21079 ft | 393 kts | 271° |
| 2026-04-25 21:11 | 47.31086 | 7.61231 | 21650 ft | 392 kts | 282° |
| 2026-04-25 21:11 | 47.31637 | 7.57295 | 22183 ft | 394 kts | 287° |